sensor_id;sensor_type;location;lat;lon;timestamp;pressure;altitude;pressure_sealevel;temperature
15079;BMP180;6932;51.438;5.470;2024-03-22T00:01:54;101730.00;;;17.90
15079;BMP180;6932;51.438;5.470;2024-03-22T00:04:20;101723.00;;;17.90
15079;BMP180;6932;51.438;5.470;2024-03-22T00:06:48;101727.00;;;17.90
15079;BMP180;6932;51.438;5.470;2024-03-22T00:09:14;101729.00;;;17.90
15079;BMP180;6932;51.438;5.470;2024-03-22T00:11:41;101718.00;;;17.90
15079;BMP180;6932;51.438;5.470;2024-03-22T00:14:08;101721.00;;;17.90
15079;BMP180;6932;51.438;5.470;2024-03-22T00:16:34;101722.00;;;17.90
15079;BMP180;6932;51.438;5.470;2024-03-22T00:19:00;101723.00;;;18.00
15079;BMP180;6932;51.438;5.470;2024-03-22T00:21:26;101715.00;;;17.90
15079;BMP180;6932;51.438;5.470;2024-03-22T00:23:52;101718.00;;;17.90
15079;BMP180;6932;51.438;5.470;2024-03-22T00:26:18;101710.00;;;18.00
15079;BMP180;6932;51.438;5.470;2024-03-22T00:28:43;101715.00;;;18.00
15079;BMP180;6932;51.438;5.470;2024-03-22T00:31:09;101716.00;;;18.00
15079;BMP180;6932;51.438;5.470;2024-03-22T00:33:35;101711.00;;;18.00
15079;BMP180;6932;51.438;5.470;2024-03-22T00:36:01;101718.00;;;18.00
15079;BMP180;6932;51.438;5.470;2024-03-22T00:38:27;101715.00;;;18.00
15079;BMP180;6932;51.438;5.470;2024-03-22T00:40:53;101705.00;;;18.00
15079;BMP180;6932;51.438;5.470;2024-03-22T00:43:20;101689.00;;;18.00
15079;BMP180;6932;51.438;5.470;2024-03-22T00:45:46;101688.00;;;18.00
15079;BMP180;6932;51.438;5.470;2024-03-22T00:48:12;101688.00;;;18.00
15079;BMP180;6932;51.438;5.470;2024-03-22T00:50:38;101681.00;;;18.00
15079;BMP180;6932;51.438;5.470;2024-03-22T00:53:04;101679.00;;;18.00
15079;BMP180;6932;51.438;5.470;2024-03-22T00:55:31;101676.00;;;18.00
15079;BMP180;6932;51.438;5.470;2024-03-22T00:57:57;101666.00;;;18.00
15079;BMP180;6932;51.438;5.470;2024-03-22T01:00:24;101667.00;;;18.00
15079;BMP180;6932;51.438;5.470;2024-03-22T01:02:50;101664.00;;;18.00
15079;BMP180;6932;51.438;5.470;2024-03-22T01:05:17;101648.00;;;18.00
15079;BMP180;6932;51.438;5.470;2024-03-22T01:07:43;101639.00;;;18.00
15079;BMP180;6932;51.438;5.470;2024-03-22T01:10:10;101634.00;;;18.00
15079;BMP180;6932;51.438;5.470;2024-03-22T01:12:37;101635.00;;;18.00
15079;BMP180;6932;51.438;5.470;2024-03-22T01:15:05;101629.00;;;18.00
15079;BMP180;6932;51.438;5.470;2024-03-22T01:17:31;101629.00;;;18.00
15079;BMP180;6932;51.438;5.470;2024-03-22T01:19:56;101624.00;;;18.00
15079;BMP180;6932;51.438;5.470;2024-03-22T01:22:22;101626.00;;;18.00
15079;BMP180;6932;51.438;5.470;2024-03-22T01:24:49;101617.00;;;18.10
15079;BMP180;6932;51.438;5.470;2024-03-22T01:27:14;101608.00;;;18.10
15079;BMP180;6932;51.438;5.470;2024-03-22T01:29:40;101603.00;;;18.10
15079;BMP180;6932;51.438;5.470;2024-03-22T01:32:06;101599.00;;;18.10
15079;BMP180;6932;51.438;5.470;2024-03-22T01:34:32;101604.00;;;18.10
15079;BMP180;6932;51.438;5.470;2024-03-22T01:36:58;101612.00;;;18.10
15079;BMP180;6932;51.438;5.470;2024-03-22T01:39:24;101620.00;;;18.10
15079;BMP180;6932;51.438;5.470;2024-03-22T01:41:50;101600.00;;;18.10
15079;BMP180;6932;51.438;5.470;2024-03-22T01:44:17;101601.00;;;18.10
15079;BMP180;6932;51.438;5.470;2024-03-22T01:46:44;101601.00;;;18.10
15079;BMP180;6932;51.438;5.470;2024-03-22T01:49:14;101595.00;;;18.10
15079;BMP180;6932;51.438;5.470;2024-03-22T01:51:40;101592.00;;;18.10
15079;BMP180;6932;51.438;5.470;2024-03-22T01:54:09;101588.00;;;18.10
15079;BMP180;6932;51.438;5.470;2024-03-22T01:56:39;101599.00;;;18.10
15079;BMP180;6932;51.438;5.470;2024-03-22T01:59:06;101592.00;;;18.10
15079;BMP180;6932;51.438;5.470;2024-03-22T02:01:33;101584.00;;;18.10
15079;BMP180;6932;51.438;5.470;2024-03-22T02:03:59;101580.00;;;18.10
15079;BMP180;6932;51.438;5.470;2024-03-22T02:06:25;101574.00;;;18.10
15079;BMP180;6932;51.438;5.470;2024-03-22T02:08:51;101574.00;;;18.20
15079;BMP180;6932;51.438;5.470;2024-03-22T02:11:17;101579.00;;;18.20
15079;BMP180;6932;51.438;5.470;2024-03-22T02:13:43;101583.00;;;18.20
15079;BMP180;6932;51.438;5.470;2024-03-22T02:16:09;101583.00;;;18.20
15079;BMP180;6932;51.438;5.470;2024-03-22T02:18:35;101579.00;;;18.10
15079;BMP180;6932;51.438;5.470;2024-03-22T02:21:01;101586.00;;;18.10
15079;BMP180;6932;51.438;5.470;2024-03-22T02:23:38;101576.00;;;18.10
15079;BMP180;6932;51.438;5.470;2024-03-22T02:26:05;101567.00;;;18.10
15079;BMP180;6932;51.438;5.470;2024-03-22T02:28:32;101559.00;;;18.10
15079;BMP180;6932;51.438;5.470;2024-03-22T02:30:59;101556.00;;;18.10
15079;BMP180;6932;51.438;5.470;2024-03-22T02:33:25;101562.00;;;18.10
15079;BMP180;6932;51.438;5.470;2024-03-22T02:35:51;101562.00;;;18.10
15079;BMP180;6932;51.438;5.470;2024-03-22T02:38:18;101566.00;;;18.10
15079;BMP180;6932;51.438;5.470;2024-03-22T02:40:45;101562.00;;;18.10
15079;BMP180;6932;51.438;5.470;2024-03-22T02:43:11;101559.00;;;18.10
15079;BMP180;6932;51.438;5.470;2024-03-22T02:45:38;101554.00;;;18.10
15079;BMP180;6932;51.438;5.470;2024-03-22T02:48:04;101562.00;;;18.10
15079;BMP180;6932;51.438;5.470;2024-03-22T02:50:35;101557.00;;;18.10
15079;BMP180;6932;51.438;5.470;2024-03-22T02:53:01;101547.00;;;18.10
15079;BMP180;6932;51.438;5.470;2024-03-22T02:55:27;101553.00;;;18.10
15079;BMP180;6932;51.438;5.470;2024-03-22T02:57:52;101550.00;;;18.10
15079;BMP180;6932;51.438;5.470;2024-03-22T03:00:18;101535.00;;;18.10
15079;BMP180;6932;51.438;5.470;2024-03-22T03:02:46;101525.00;;;18.10
15079;BMP180;6932;51.438;5.470;2024-03-22T03:05:11;101509.00;;;18.10
15079;BMP180;6932;51.438;5.470;2024-03-22T03:07:37;101494.00;;;18.10
15079;BMP180;6932;51.438;5.470;2024-03-22T03:10:03;101492.00;;;18.10
15079;BMP180;6932;51.438;5.470;2024-03-22T03:12:29;101495.00;;;18.10
15079;BMP180;6932;51.438;5.470;2024-03-22T03:14:55;101492.00;;;18.10
15079;BMP180;6932;51.438;5.470;2024-03-22T03:17:20;101496.00;;;18.10
15079;BMP180;6932;51.438;5.470;2024-03-22T03:19:47;101493.00;;;18.10
15079;BMP180;6932;51.438;5.470;2024-03-22T03:22:13;101500.00;;;18.10
15079;BMP180;6932;51.438;5.470;2024-03-22T03:24:39;101497.00;;;18.10
15079;BMP180;6932;51.438;5.470;2024-03-22T03:27:04;101492.00;;;18.10
15079;BMP180;6932;51.438;5.470;2024-03-22T03:29:30;101492.00;;;18.10
15079;BMP180;6932;51.438;5.470;2024-03-22T03:31:56;101490.00;;;18.10
15079;BMP180;6932;51.438;5.470;2024-03-22T03:34:22;101487.00;;;18.00
15079;BMP180;6932;51.438;5.470;2024-03-22T03:36:47;101481.00;;;18.00
15079;BMP180;6932;51.438;5.470;2024-03-22T03:39:13;101476.00;;;18.00
15079;BMP180;6932;51.438;5.470;2024-03-22T03:41:39;101468.00;;;18.00
15079;BMP180;6932;51.438;5.470;2024-03-22T03:44:05;101457.00;;;18.00
15079;BMP180;6932;51.438;5.470;2024-03-22T03:46:31;101452.00;;;18.00
15079;BMP180;6932;51.438;5.470;2024-03-22T03:48:57;101456.00;;;18.00
15079;BMP180;6932;51.438;5.470;2024-03-22T03:51:22;101456.00;;;17.90
15079;BMP180;6932;51.438;5.470;2024-03-22T03:53:48;101450.00;;;17.90
15079;BMP180;6932;51.438;5.470;2024-03-22T03:56:14;101446.00;;;17.90
15079;BMP180;6932;51.438;5.470;2024-03-22T03:58:40;101444.00;;;17.90
15079;BMP180;6932;51.438;5.470;2024-03-22T04:01:07;101449.00;;;17.90
15079;BMP180;6932;51.438;5.470;2024-03-22T04:03:32;101447.00;;;17.90
15079;BMP180;6932;51.438;5.470;2024-03-22T04:05:59;101452.00;;;17.90
15079;BMP180;6932;51.438;5.470;2024-03-22T04:08:26;101439.00;;;17.90
15079;BMP180;6932;51.438;5.470;2024-03-22T04:10:53;101440.00;;;17.80
15079;BMP180;6932;51.438;5.470;2024-03-22T04:13:21;101445.00;;;17.80
15079;BMP180;6932;51.438;5.470;2024-03-22T04:15:47;101433.00;;;17.80
15079;BMP180;6932;51.438;5.470;2024-03-22T04:18:13;101434.00;;;17.80
15079;BMP180;6932;51.438;5.470;2024-03-22T04:20:38;101437.00;;;17.80
15079;BMP180;6932;51.438;5.470;2024-03-22T04:23:04;101445.00;;;17.80
15079;BMP180;6932;51.438;5.470;2024-03-22T04:25:30;101443.00;;;17.80
15079;BMP180;6932;51.438;5.470;2024-03-22T04:27:55;101441.00;;;17.80
15079;BMP180;6932;51.438;5.470;2024-03-22T04:30:21;101442.00;;;17.80
15079;BMP180;6932;51.438;5.470;2024-03-22T04:32:47;101442.00;;;17.80
15079;BMP180;6932;51.438;5.470;2024-03-22T04:35:13;101441.00;;;17.80
15079;BMP180;6932;51.438;5.470;2024-03-22T04:37:39;101437.00;;;17.70
15079;BMP180;6932;51.438;5.470;2024-03-22T04:40:05;101441.00;;;17.70
15079;BMP180;6932;51.438;5.470;2024-03-22T04:42:31;101440.00;;;17.70
15079;BMP180;6932;51.438;5.470;2024-03-22T04:44:57;101440.00;;;17.70
15079;BMP180;6932;51.438;5.470;2024-03-22T04:47:23;101444.00;;;17.70
15079;BMP180;6932;51.438;5.470;2024-03-22T04:49:49;101441.00;;;17.70
15079;BMP180;6932;51.438;5.470;2024-03-22T04:52:15;101441.00;;;17.70
15079;BMP180;6932;51.438;5.470;2024-03-22T04:54:40;101433.00;;;17.70
15079;BMP180;6932;51.438;5.470;2024-03-22T04:57:06;101430.00;;;17.70
15079;BMP180;6932;51.438;5.470;2024-03-22T04:59:32;101430.00;;;17.70
15079;BMP180;6932;51.438;5.470;2024-03-22T05:01:57;101431.00;;;17.70
15079;BMP180;6932;51.438;5.470;2024-03-22T05:04:23;101424.00;;;17.70
15079;BMP180;6932;51.438;5.470;2024-03-22T05:06:49;101421.00;;;17.70
15079;BMP180;6932;51.438;5.470;2024-03-22T05:09:15;101421.00;;;17.70
15079;BMP180;6932;51.438;5.470;2024-03-22T05:11:41;101421.00;;;17.70
15079;BMP180;6932;51.438;5.470;2024-03-22T05:14:07;101397.00;;;17.60
15079;BMP180;6932;51.438;5.470;2024-03-22T05:16:32;101406.00;;;17.60
15079;BMP180;6932;51.438;5.470;2024-03-22T05:18:59;101415.00;;;17.60
15079;BMP180;6932;51.438;5.470;2024-03-22T05:21:24;101405.00;;;17.60
15079;BMP180;6932;51.438;5.470;2024-03-22T05:23:50;101409.00;;;17.60
15079;BMP180;6932;51.438;5.470;2024-03-22T05:26:16;101406.00;;;17.60
15079;BMP180;6932;51.438;5.470;2024-03-22T05:28:41;101402.00;;;17.60
15079;BMP180;6932;51.438;5.470;2024-03-22T05:31:08;101416.00;;;17.60
15079;BMP180;6932;51.438;5.470;2024-03-22T05:33:34;101409.00;;;17.50
15079;BMP180;6932;51.438;5.470;2024-03-22T05:36:00;101409.00;;;17.50
15079;BMP180;6932;51.438;5.470;2024-03-22T05:38:26;101416.00;;;17.50
15079;BMP180;6932;51.438;5.470;2024-03-22T05:40:51;101414.00;;;17.50
15079;BMP180;6932;51.438;5.470;2024-03-22T05:43:17;101408.00;;;17.50
15079;BMP180;6932;51.438;5.470;2024-03-22T05:45:43;101410.00;;;17.50
15079;BMP180;6932;51.438;5.470;2024-03-22T05:48:08;101414.00;;;17.50
15079;BMP180;6932;51.438;5.470;2024-03-22T05:50:34;101396.00;;;17.50
15079;BMP180;6932;51.438;5.470;2024-03-22T05:53:00;101399.00;;;17.50
15079;BMP180;6932;51.438;5.470;2024-03-22T05:55:25;101405.00;;;17.50
15079;BMP180;6932;51.438;5.470;2024-03-22T05:57:53;101391.00;;;17.40
15079;BMP180;6932;51.438;5.470;2024-03-22T06:00:18;101398.00;;;17.40
15079;BMP180;6932;51.438;5.470;2024-03-22T06:02:44;101394.00;;;17.40
15079;BMP180;6932;51.438;5.470;2024-03-22T06:05:10;101385.00;;;17.40
15079;BMP180;6932;51.438;5.470;2024-03-22T06:07:35;101395.00;;;17.40
15079;BMP180;6932;51.438;5.470;2024-03-22T06:10:08;101397.00;;;17.40
15079;BMP180;6932;51.438;5.470;2024-03-22T06:12:35;101397.00;;;17.40
15079;BMP180;6932;51.438;5.470;2024-03-22T06:15:02;101397.00;;;17.40
15079;BMP180;6932;51.438;5.470;2024-03-22T06:17:32;101390.00;;;17.40
15079;BMP180;6932;51.438;5.470;2024-03-22T06:19:59;101395.00;;;17.40
15079;BMP180;6932;51.438;5.470;2024-03-22T06:22:30;101383.00;;;17.40
15079;BMP180;6932;51.438;5.470;2024-03-22T06:24:55;101390.00;;;17.40
15079;BMP180;6932;51.438;5.470;2024-03-22T06:27:21;101383.00;;;17.40
15079;BMP180;6932;51.438;5.470;2024-03-22T06:29:47;101383.00;;;17.40
15079;BMP180;6932;51.438;5.470;2024-03-22T06:32:12;101390.00;;;17.40
15079;BMP180;6932;51.438;5.470;2024-03-22T06:34:38;101381.00;;;17.40
15079;BMP180;6932;51.438;5.470;2024-03-22T06:37:04;101381.00;;;17.40
15079;BMP180;6932;51.438;5.470;2024-03-22T06:39:30;101389.00;;;17.40
15079;BMP180;6932;51.438;5.470;2024-03-22T06:41:55;101382.00;;;17.40
15079;BMP180;6932;51.438;5.470;2024-03-22T06:44:22;101386.00;;;17.40
15079;BMP180;6932;51.438;5.470;2024-03-22T06:46:47;101384.00;;;17.40
15079;BMP180;6932;51.438;5.470;2024-03-22T06:49:13;101393.00;;;17.50
15079;BMP180;6932;51.438;5.470;2024-03-22T06:51:39;101389.00;;;17.50
15079;BMP180;6932;51.438;5.470;2024-03-22T06:54:04;101393.00;;;17.50
15079;BMP180;6932;51.438;5.470;2024-03-22T06:56:30;101389.00;;;17.50
15079;BMP180;6932;51.438;5.470;2024-03-22T06:58:56;101383.00;;;17.50
15079;BMP180;6932;51.438;5.470;2024-03-22T07:01:22;101388.00;;;17.50
15079;BMP180;6932;51.438;5.470;2024-03-22T07:03:47;101387.00;;;17.50
15079;BMP180;6932;51.438;5.470;2024-03-22T07:06:15;101382.00;;;17.50
15079;BMP180;6932;51.438;5.470;2024-03-22T07:08:41;101387.00;;;17.60
15079;BMP180;6932;51.438;5.470;2024-03-22T07:11:07;101373.00;;;17.60
15079;BMP180;6932;51.438;5.470;2024-03-22T07:13:34;101373.00;;;17.60
15079;BMP180;6932;51.438;5.470;2024-03-22T07:16:00;101375.00;;;17.60
15079;BMP180;6932;51.438;5.470;2024-03-22T07:18:26;101377.00;;;17.60
15079;BMP180;6932;51.438;5.470;2024-03-22T07:20:51;101378.00;;;17.60
15079;BMP180;6932;51.438;5.470;2024-03-22T07:23:17;101380.00;;;17.60
15079;BMP180;6932;51.438;5.470;2024-03-22T07:25:43;101380.00;;;17.60
15079;BMP180;6932;51.438;5.470;2024-03-22T07:28:11;101387.00;;;17.60
15079;BMP180;6932;51.438;5.470;2024-03-22T07:30:37;101384.00;;;17.60
15079;BMP180;6932;51.438;5.470;2024-03-22T07:33:04;101383.00;;;17.70
15079;BMP180;6932;51.438;5.470;2024-03-22T07:35:29;101383.00;;;17.70
15079;BMP180;6932;51.438;5.470;2024-03-22T07:37:56;101382.00;;;17.80
15079;BMP180;6932;51.438;5.470;2024-03-22T07:40:22;101376.00;;;17.90
15079;BMP180;6932;51.438;5.470;2024-03-22T07:42:47;101387.00;;;17.90
15079;BMP180;6932;51.438;5.470;2024-03-22T07:45:13;101380.00;;;17.90
15079;BMP180;6932;51.438;5.470;2024-03-22T07:47:39;101376.00;;;17.90
15079;BMP180;6932;51.438;5.470;2024-03-22T07:50:08;101377.00;;;17.90
15079;BMP180;6932;51.438;5.470;2024-03-22T07:52:34;101374.00;;;17.90
15079;BMP180;6932;51.438;5.470;2024-03-22T07:55:00;101372.00;;;17.90
15079;BMP180;6932;51.438;5.470;2024-03-22T07:57:29;101369.00;;;18.00
15079;BMP180;6932;51.438;5.470;2024-03-22T07:59:57;101367.00;;;18.00
15079;BMP180;6932;51.438;5.470;2024-03-22T08:02:23;101378.00;;;18.00
15079;BMP180;6932;51.438;5.470;2024-03-22T08:04:49;101364.00;;;18.00
15079;BMP180;6932;51.438;5.470;2024-03-22T08:07:15;101384.00;;;18.00
15079;BMP180;6932;51.438;5.470;2024-03-22T08:09:41;101374.00;;;18.10
15079;BMP180;6932;51.438;5.470;2024-03-22T08:12:07;101375.00;;;18.10
15079;BMP180;6932;51.438;5.470;2024-03-22T08:14:33;101366.00;;;18.10
15079;BMP180;6932;51.438;5.470;2024-03-22T08:16:58;101377.00;;;18.10
15079;BMP180;6932;51.438;5.470;2024-03-22T08:19:24;101371.00;;;18.20
15079;BMP180;6932;51.438;5.470;2024-03-22T08:21:50;101377.00;;;18.20
15079;BMP180;6932;51.438;5.470;2024-03-22T08:24:18;101370.00;;;18.20
15079;BMP180;6932;51.438;5.470;2024-03-22T08:26:44;101366.00;;;18.20
15079;BMP180;6932;51.438;5.470;2024-03-22T08:29:15;101369.00;;;18.20
15079;BMP180;6932;51.438;5.470;2024-03-22T08:31:41;101365.00;;;18.20
15079;BMP180;6932;51.438;5.470;2024-03-22T08:34:08;101367.00;;;18.30
15079;BMP180;6932;51.438;5.470;2024-03-22T08:36:34;101366.00;;;18.30
15079;BMP180;6932;51.438;5.470;2024-03-22T08:39:00;101357.00;;;18.30
15079;BMP180;6932;51.438;5.470;2024-03-22T08:41:26;101352.00;;;18.30
15079;BMP180;6932;51.438;5.470;2024-03-22T08:43:51;101360.00;;;18.30
15079;BMP180;6932;51.438;5.470;2024-03-22T08:46:17;101349.00;;;18.30
15079;BMP180;6932;51.438;5.470;2024-03-22T08:48:43;101355.00;;;18.30
15079;BMP180;6932;51.438;5.470;2024-03-22T08:51:08;101341.00;;;18.20
15079;BMP180;6932;51.438;5.470;2024-03-22T08:53:34;101356.00;;;18.20
15079;BMP180;6932;51.438;5.470;2024-03-22T08:56:00;101362.00;;;18.20
15079;BMP180;6932;51.438;5.470;2024-03-22T08:58:26;101363.00;;;18.20
15079;BMP180;6932;51.438;5.470;2024-03-22T09:00:52;101361.00;;;18.20
15079;BMP180;6932;51.438;5.470;2024-03-22T09:03:18;101361.00;;;18.20
15079;BMP180;6932;51.438;5.470;2024-03-22T09:05:43;101187.00;;;18.00
15079;BMP180;6932;51.438;5.470;2024-03-22T09:08:09;101171.00;;;17.60
15079;BMP180;6932;51.438;5.470;2024-03-22T09:10:35;101174.00;;;17.40
15079;BMP180;6932;51.438;5.470;2024-03-22T09:13:01;101179.00;;;17.20
15079;BMP180;6932;51.438;5.470;2024-03-22T09:15:27;101178.00;;;17.00
15079;BMP180;6932;51.438;5.470;2024-03-22T09:17:52;101178.00;;;16.90
15079;BMP180;6932;51.438;5.470;2024-03-22T09:20:18;101177.00;;;16.80
15079;BMP180;6932;51.438;5.470;2024-03-22T09:22:44;101165.00;;;16.70
15079;BMP180;6932;51.438;5.470;2024-03-22T09:25:10;101154.00;;;16.60
15079;BMP180;6932;51.438;5.470;2024-03-22T09:27:35;101343.00;;;16.70
15079;BMP180;6932;51.438;5.470;2024-03-22T09:30:01;101343.00;;;17.00
15079;BMP180;6932;51.438;5.470;2024-03-22T09:32:30;101332.00;;;17.20
15079;BMP180;6932;51.438;5.470;2024-03-22T09:34:55;101332.00;;;17.30
15079;BMP180;6932;51.438;5.470;2024-03-22T09:37:21;101329.00;;;17.50
15079;BMP180;6932;51.438;5.470;2024-03-22T09:39:47;101335.00;;;17.60
15079;BMP180;6932;51.438;5.470;2024-03-22T09:42:23;101321.00;;;17.70
15079;BMP180;6932;51.438;5.470;2024-03-22T09:44:51;101326.00;;;17.90
15079;BMP180;6932;51.438;5.470;2024-03-22T09:47:18;101321.00;;;17.90
15079;BMP180;6932;51.438;5.470;2024-03-22T09:49:44;101321.00;;;18.00
15079;BMP180;6932;51.438;5.470;2024-03-22T09:52:13;101309.00;;;18.10
15079;BMP180;6932;51.438;5.470;2024-03-22T09:54:41;101310.00;;;18.20
15079;BMP180;6932;51.438;5.470;2024-03-22T09:57:14;101323.00;;;18.20
15079;BMP180;6932;51.438;5.470;2024-03-22T09:59:46;101327.00;;;18.20
15079;BMP180;6932;51.438;5.470;2024-03-22T10:02:13;101318.00;;;18.20
15079;BMP180;6932;51.438;5.470;2024-03-22T10:04:42;101313.00;;;18.30
15079;BMP180;6932;51.438;5.470;2024-03-22T10:07:08;101309.00;;;18.30
15079;BMP180;6932;51.438;5.470;2024-03-22T10:09:39;101312.00;;;18.30
15079;BMP180;6932;51.438;5.470;2024-03-22T10:12:05;101313.00;;;18.30
15079;BMP180;6932;51.438;5.470;2024-03-22T10:14:30;101309.00;;;18.30
15079;BMP180;6932;51.438;5.470;2024-03-22T10:16:57;101307.00;;;18.30
15079;BMP180;6932;51.438;5.470;2024-03-22T10:19:24;101308.00;;;18.30
15079;BMP180;6932;51.438;5.470;2024-03-22T10:22:03;101302.00;;;18.30
15079;BMP180;6932;51.438;5.470;2024-03-22T10:24:30;101308.00;;;18.30
15079;BMP180;6932;51.438;5.470;2024-03-22T10:26:56;101307.00;;;18.30
15079;BMP180;6932;51.438;5.470;2024-03-22T10:29:22;101306.00;;;18.40
15079;BMP180;6932;51.438;5.470;2024-03-22T10:31:51;101314.00;;;18.30
15079;BMP180;6932;51.438;5.470;2024-03-22T10:34:18;101300.00;;;18.40
15079;BMP180;6932;51.438;5.470;2024-03-22T10:36:46;101300.00;;;18.40
15079;BMP180;6932;51.438;5.470;2024-03-22T10:39:16;101297.00;;;18.30
15079;BMP180;6932;51.438;5.470;2024-03-22T10:41:47;101298.00;;;18.30
15079;BMP180;6932;51.438;5.470;2024-03-22T10:44:17;101300.00;;;18.40
15079;BMP180;6932;51.438;5.470;2024-03-22T10:46:47;101297.00;;;18.40
15079;BMP180;6932;51.438;5.470;2024-03-22T10:49:18;101306.00;;;18.30
15079;BMP180;6932;51.438;5.470;2024-03-22T10:51:51;101296.00;;;18.30
15079;BMP180;6932;51.438;5.470;2024-03-22T10:54:21;101305.00;;;18.30
15079;BMP180;6932;51.438;5.470;2024-03-22T10:56:50;101294.00;;;18.30
15079;BMP180;6932;51.438;5.470;2024-03-22T10:59:21;101296.00;;;18.30
15079;BMP180;6932;51.438;5.470;2024-03-22T11:01:49;101294.00;;;18.30
15079;BMP180;6932;51.438;5.470;2024-03-22T11:04:21;101288.00;;;18.30
15079;BMP180;6932;51.438;5.470;2024-03-22T11:06:50;101291.00;;;18.30
15079;BMP180;6932;51.438;5.470;2024-03-22T11:09:24;101298.00;;;18.30
15079;BMP180;6932;51.438;5.470;2024-03-22T11:11:55;101288.00;;;18.30
15079;BMP180;6932;51.438;5.470;2024-03-22T11:14:22;101291.00;;;18.30
15079;BMP180;6932;51.438;5.470;2024-03-22T11:16:50;101298.00;;;18.30
15079;BMP180;6932;51.438;5.470;2024-03-22T11:19:17;101297.00;;;18.30
15079;BMP180;6932;51.438;5.470;2024-03-22T11:21:42;101290.00;;;18.30
15079;BMP180;6932;51.438;5.470;2024-03-22T11:24:08;101286.00;;;18.30
15079;BMP180;6932;51.438;5.470;2024-03-22T11:26:35;101290.00;;;18.30
15079;BMP180;6932;51.438;5.470;2024-03-22T11:29:01;101289.00;;;18.30
15079;BMP180;6932;51.438;5.470;2024-03-22T11:31:27;101299.00;;;18.30
15079;BMP180;6932;51.438;5.470;2024-03-22T11:33:54;101289.00;;;18.30
15079;BMP180;6932;51.438;5.470;2024-03-22T11:36:20;101288.00;;;18.30
15079;BMP180;6932;51.438;5.470;2024-03-22T11:38:46;101283.00;;;18.20
15079;BMP180;6932;51.438;5.470;2024-03-22T11:41:20;101287.00;;;18.20
15079;BMP180;6932;51.438;5.470;2024-03-22T11:43:47;101278.00;;;18.20
15079;BMP180;6932;51.438;5.470;2024-03-22T11:46:15;101275.00;;;18.20
15079;BMP180;6932;51.438;5.470;2024-03-22T11:48:41;101265.00;;;18.20
15079;BMP180;6932;51.438;5.470;2024-03-22T11:51:08;101269.00;;;18.20
15079;BMP180;6932;51.438;5.470;2024-03-22T11:53:35;101269.00;;;18.20
15079;BMP180;6932;51.438;5.470;2024-03-22T11:56:03;101265.00;;;18.20
15079;BMP180;6932;51.438;5.470;2024-03-22T11:58:29;101271.00;;;18.20
15079;BMP180;6932;51.438;5.470;2024-03-22T12:00:57;101267.00;;;18.20
15079;BMP180;6932;51.438;5.470;2024-03-22T12:03:23;101256.00;;;18.20
15079;BMP180;6932;51.438;5.470;2024-03-22T12:05:49;101249.00;;;18.20
15079;BMP180;6932;51.438;5.470;2024-03-22T12:08:18;101248.00;;;18.20
15079;BMP180;6932;51.438;5.470;2024-03-22T12:10:43;101245.00;;;18.20
15079;BMP180;6932;51.438;5.470;2024-03-22T12:13:09;101237.00;;;18.10
15079;BMP180;6932;51.438;5.470;2024-03-22T12:15:35;101243.00;;;18.20
15079;BMP180;6932;51.438;5.470;2024-03-22T12:18:02;101228.00;;;18.10
15079;BMP180;6932;51.438;5.470;2024-03-22T12:20:28;101227.00;;;18.10
15079;BMP180;6932;51.438;5.470;2024-03-22T12:22:55;101230.00;;;18.10
15079;BMP180;6932;51.438;5.470;2024-03-22T12:25:21;101218.00;;;18.10
15079;BMP180;6932;51.438;5.470;2024-03-22T12:27:47;101218.00;;;18.10
15079;BMP180;6932;51.438;5.470;2024-03-22T12:30:13;101217.00;;;18.20
15079;BMP180;6932;51.438;5.470;2024-03-22T12:32:39;101217.00;;;18.20
15079;BMP180;6932;51.438;5.470;2024-03-22T12:35:05;101219.00;;;18.20
15079;BMP180;6932;51.438;5.470;2024-03-22T12:37:31;101216.00;;;18.20
15079;BMP180;6932;51.438;5.470;2024-03-22T12:39:56;101204.00;;;18.20
15079;BMP180;6932;51.438;5.470;2024-03-22T12:42:22;101200.00;;;18.20
15079;BMP180;6932;51.438;5.470;2024-03-22T12:44:48;101200.00;;;18.20
15079;BMP180;6932;51.438;5.470;2024-03-22T12:47:14;101195.00;;;18.10
15079;BMP180;6932;51.438;5.470;2024-03-22T12:49:40;101198.00;;;18.20
15079;BMP180;6932;51.438;5.470;2024-03-22T12:52:06;101189.00;;;18.10
15079;BMP180;6932;51.438;5.470;2024-03-22T12:54:32;101194.00;;;18.10
15079;BMP180;6932;51.438;5.470;2024-03-22T12:56:58;101186.00;;;18.10
15079;BMP180;6932;51.438;5.470;2024-03-22T12:59:24;101187.00;;;18.10
15079;BMP180;6932;51.438;5.470;2024-03-22T13:01:49;101189.00;;;18.10
15079;BMP180;6932;51.438;5.470;2024-03-22T13:04:15;101190.00;;;18.10
15079;BMP180;6932;51.438;5.470;2024-03-22T13:06:43;101175.00;;;18.10
15079;BMP180;6932;51.438;5.470;2024-03-22T13:09:08;101172.00;;;18.10
15079;BMP180;6932;51.438;5.470;2024-03-22T13:11:36;101175.00;;;18.10
15079;BMP180;6932;51.438;5.470;2024-03-22T13:14:02;101181.00;;;18.10
15079;BMP180;6932;51.438;5.470;2024-03-22T13:16:28;101173.00;;;18.10
15079;BMP180;6932;51.438;5.470;2024-03-22T13:18:54;101173.00;;;18.10
15079;BMP180;6932;51.438;5.470;2024-03-22T13:21:19;101177.00;;;18.00
15079;BMP180;6932;51.438;5.470;2024-03-22T13:23:45;101166.00;;;18.00
15079;BMP180;6932;51.438;5.470;2024-03-22T13:26:11;101173.00;;;18.00
15079;BMP180;6932;51.438;5.470;2024-03-22T13:28:37;101171.00;;;18.00
15079;BMP180;6932;51.438;5.470;2024-03-22T13:31:04;101165.00;;;18.00
15079;BMP180;6932;51.438;5.470;2024-03-22T13:33:34;101162.00;;;17.90
15079;BMP180;6932;51.438;5.470;2024-03-22T13:36:01;101153.00;;;17.90
15079;BMP180;6932;51.438;5.470;2024-03-22T13:38:27;101159.00;;;17.90
15079;BMP180;6932;51.438;5.470;2024-03-22T13:40:58;101152.00;;;17.80
15079;BMP180;6932;51.438;5.470;2024-03-22T13:43:26;101141.00;;;17.80
15079;BMP180;6932;51.438;5.470;2024-03-22T13:45:55;101136.00;;;17.80
15079;BMP180;6932;51.438;5.470;2024-03-22T13:48:23;101146.00;;;17.80
15079;BMP180;6932;51.438;5.470;2024-03-22T13:50:54;101143.00;;;17.70
15079;BMP180;6932;51.438;5.470;2024-03-22T13:53:21;101144.00;;;17.70
15079;BMP180;6932;51.438;5.470;2024-03-22T13:55:51;101141.00;;;17.70
15079;BMP180;6932;51.438;5.470;2024-03-22T13:58:18;101134.00;;;17.70
15079;BMP180;6932;51.438;5.470;2024-03-22T14:00:44;101140.00;;;17.60
15079;BMP180;6932;51.438;5.470;2024-03-22T14:03:10;101132.00;;;17.60
15079;BMP180;6932;51.438;5.470;2024-03-22T14:05:36;101130.00;;;17.60